Time;durP1;ratioP1;P1;durP2;ratioP2;P2;SDS_P1;SDS_P2;PMS_P1;PMS_P2;Temp;Humidity;BMP_temperature;BMP_pressure;BME280_temperature;BME280_humidity;BME280_pressure;Samples;Min_cycle;Max_cycle;Signal;HPM_P1;HPM_P2
2021/09/14 00:00:26;;;;;;;4.22;2.17;;;15.80;69.10;;;;;;4989250;28;96206;-74
2021/09/14 00:02:57;;;;;;;2.03;1.60;;;15.90;69.00;;;;;;5012134;28;105502;-75
2021/09/14 00:05:29;;;;;;;2.25;1.90;;;16.00;69.10;;;;;;5012827;28;96832;-73
2021/09/14 00:08:00;;;;;;;2.13;1.50;;;16.10;69.10;;;;;;5009780;28;96112;-75
2021/09/14 00:10:31;;;;;;;2.78;1.60;;;16.10;69.00;;;;;;4991968;28;95884;-74
2021/09/14 00:13:03;;;;;;;2.10;1.70;;;16.10;69.10;;;;;;5005889;28;95879;-76
2021/09/14 00:15:34;;;;;;;2.17;1.80;;;16.20;68.20;;;;;;5003324;28;97245;-74
2021/09/14 00:18:06;;;;;;;3.90;2.00;;;16.20;69.00;;;;;;5004823;28;95780;-73
2021/09/14 00:20:37;;;;;;;3.08;1.80;;;16.30;68.00;;;;;;4984958;28;95504;-75
2021/09/14 00:23:08;;;;;;;4.95;1.92;;;16.40;68.80;;;;;;5012067;28;98699;-73
2021/09/14 00:25:40;;;;;;;2.00;1.83;;;16.40;68.50;;;;;;5010548;28;95863;-75
2021/09/14 00:28:11;;;;;;;1.55;1.30;;;16.50;68.30;;;;;;5006789;28;95886;-75
2021/09/14 00:30:41;;;;;;;;;;;16.60;58.50;;;;;;4991341;28;95645;-69
2021/09/14 00:33:12;;;;;;;2.78;1.52;;;16.60;68.30;;;;;;5009469;28;95898;-73
2021/09/14 00:35:43;;;;;;;1.75;1.30;;;16.60;67.80;;;;;;4991607;28;95817;-72
2021/09/14 00:38:13;;;;;;;2.25;1.60;;;16.70;68.10;;;;;;5012164;28;95878;-73
2021/09/14 00:40:43;;;;;;;1.38;1.25;;;16.70;67.90;;;;;;5011259;28;95673;-74
2021/09/14 00:43:24;;;;;;;1.48;1.35;;;16.80;67.70;;;;;;5003940;28;95865;-73
2021/09/14 00:45:57;;;;;;;1.48;1.33;;;16.80;67.50;;;;;;5002288;28;95941;-73
2021/09/14 00:48:28;;;;;;;2.63;1.73;;;16.80;67.30;;;;;;5027271;28;95622;-74
2021/09/14 00:50:59;;;;;;;1.35;1.08;;;16.80;67.10;;;;;;5035737;28;95184;-74
2021/09/14 00:53:29;;;;;;;2.97;1.60;;;16.90;67.00;;;;;;5026197;28;95844;-74
2021/09/14 00:56:01;;;;;;;1.38;1.15;;;16.90;66.80;;;;;;5032078;28;94987;-76
2021/09/14 00:58:33;;;;;;;1.50;1.08;;;16.90;66.80;;;;;;5022374;28;95731;-76
2021/09/14 01:01:04;;;;;;;2.28;1.48;;;17.00;66.60;;;;;;4981021;28;95990;-74
2021/09/14 01:03:36;;;;;;;3.13;1.60;;;17.00;66.40;;;;;;5008063;28;98075;-74
2021/09/14 01:06:09;;;;;;;1.80;1.50;;;17.10;66.30;;;;;;4975637;28;97662;-77
2021/09/14 01:08:41;;;;;;;3.22;1.23;;;17.10;66.30;;;;;;4998114;28;95448;-77
2021/09/14 01:11:12;;;;;;;1.20;1.10;;;17.20;66.50;;;;;;4996311;28;95490;-78
2021/09/14 01:13:43;;;;;;;1.70;1.02;;;17.40;66.80;;;;;;4999763;28;95875;-78
2021/09/14 01:16:15;;;;;;;1.17;1.08;;;17.50;66.70;;;;;;4979404;28;97501;-77
2021/09/14 01:18:46;;;;;;;2.08;0.85;;;17.60;66.50;;;;;;4982594;28;95709;-79
2021/09/14 01:21:20;;;;;;;1.58;0.93;;;17.80;65.80;;;;;;4988496;28;96168;-79
2021/09/14 01:23:52;;;;;;;2.30;0.75;;;17.80;66.30;;;;;;5006871;28;98318;-79
2021/09/14 01:26:24;;;;;;;1.20;0.90;;;17.90;66.60;;;;;;5000198;28;98007;-77
2021/09/14 01:28:54;;;;;;;1.08;0.88;;;18.00;66.60;;;;;;4996260;28;95359;-78
2021/09/14 01:31:24;;;;;;;1.42;1.13;;;18.10;66.60;;;;;;5000229;28;96268;-76
2021/09/14 01:33:56;;;;;;;2.15;1.00;;;18.20;66.30;;;;;;4991348;28;96666;-76
2021/09/14 01:36:27;;;;;;;1.27;0.90;;;18.30;66.20;;;;;;4994547;28;96692;-79
2021/09/14 01:38:57;;;;;;;1.92;0.88;;;18.30;65.40;;;;;;5005054;28;95654;-76
2021/09/14 01:41:27;;;;;;;1.30;0.70;;;18.30;65.30;;;;;;4998149;28;96306;-76
2021/09/14 01:43:59;;;;;;;0.98;0.88;;;18.40;65.90;;;;;;5016303;28;96484;-78
2021/09/14 01:46:30;;;;;;;1.00;0.90;;;18.50;66.10;;;;;;4984195;28;97893;-73
2021/09/14 01:49:00;;;;;;;0.73;0.70;;;18.50;66.00;;;;;;4997484;28;96332;-73
2021/09/14 01:51:32;;;;;;;1.15;0.65;;;18.70;65.50;;;;;;4997659;28;95614;-76
2021/09/14 01:54:05;;;;;;;0.60;0.60;;;18.70;65.70;;;;;;4998530;28;98185;-78
2021/09/14 01:56:38;;;;;;;0.50;0.50;;;18.80;65.90;;;;;;4985577;28;97827;-80
2021/09/14 01:59:12;;;;;;;1.88;0.77;;;18.90;65.80;;;;;;4986465;28;95869;-78
2021/09/14 02:01:55;;;;;;;0.82;0.70;;;19.00;65.60;;;;;;5002662;28;95306;-78
2021/09/14 02:24:01;;;;;;;0.60;0.60;;;20.00;64.20;;;;;;5032752;27;95813;-76
2021/09/14 02:59:29;;;;;;;0.50;0.50;;;20.90;61.40;;;;;;5006175;28;98165;-76
2021/09/14 03:02:02;;;;;;;0.70;0.70;;;21.00;61.50;;;;;;5002051;27;97891;-77
2021/09/14 03:04:34;;;;;;;0.40;0.40;;;21.00;61.60;;;;;;5005408;28;95397;-75
2021/09/14 03:07:05;;;;;;;0.70;0.35;;;21.10;61.60;;;;;;5000286;28;95802;-75
2021/09/14 03:09:39;;;;;;;0.30;0.30;;;21.10;61.60;;;;;;4999788;28;98006;-75
2021/09/14 03:12:10;;;;;;;0.50;0.50;;;21.10;61.50;;;;;;5000283;28;96052;-75
2021/09/14 03:14:47;;;;;;;0.40;0.40;;;21.20;61.70;;;;;;5011567;28;95352;-76
2021/09/14 03:17:17;;;;;;;0.60;0.60;;;21.20;61.60;;;;;;5008072;27;95903;-76
2021/09/14 03:19:48;;;;;;;0.73;0.55;;;21.30;61.70;;;;;;5012935;27;95720;-73
2021/09/14 03:22:19;;;;;;;1.10;0.43;;;21.00;56.30;;;;;;5001696;28;97320;-73
2021/09/14 03:24:50;;;;;;;1.50;0.50;;;20.60;54.80;;;;;;5008050;28;95543;-73
2021/09/14 03:27:20;;;;;;;1.58;0.82;;;20.20;54.10;;;;;;5004015;28;95961;-72
2021/09/14 03:29:51;;;;;;;1.15;0.60;;;19.90;53.70;;;;;;4998955;28;98496;-72
2021/09/14 03:32:24;;;;;;;1.77;0.85;;;19.70;53.30;;;;;;5024837;28;95716;-73
2021/09/14 03:34:55;;;;;;;1.10;0.60;;;19.40;53.90;;;;;;5029416;28;95972;-74
2021/09/14 03:37:25;;;;;;;2.92;2.72;;;19.20;53.30;;;;;;5011786;28;96068;-74
2021/09/14 03:39:56;;;;;;;1.80;0.90;;;19.00;53.20;;;;;;5004417;28;96131;-73
2021/09/14 03:42:26;;;;;;;2.17;0.70;;;18.90;52.60;;;;;;5009720;28;98029;-73
2021/09/14 03:44:58;;;;;;;1.85;0.55;;;18.90;53.60;;;;;;5010581;28;95319;-73
2021/09/14 03:47:30;;;;;;;0.57;0.55;;;18.90;53.60;;;;;;4991158;28;96972;-74
2021/09/14 03:50:01;;;;;;;;;;;18.80;53.40;;;;;;5007881;28;97694;-73
2021/09/14 03:52:34;;;;;;;1.98;0.55;;;18.90;54.00;;;;;;5012210;28;96705;-73
2021/09/14 03:55:05;;;;;;;;;;;18.80;54.40;;;;;;5011266;28;96097;-73
2021/09/14 03:57:40;;;;;;;1.92;0.75;;;18.70;54.00;;;;;;5010230;28;95350;-73
2021/09/14 04:00:13;;;;;;;2.03;0.95;;;18.50;53.00;;;;;;5028854;27;95874;-72
2021/09/14 04:03:08;;;;;;;1.98;0.50;;;18.50;53.00;;;;;;4996076;28;104789;-71
2021/09/14 04:10:45;;;;;;;1.63;0.57;;;18.30;53.60;;;;;;5031415;28;95835;-72
2021/09/14 04:13:19;;;;;;;1.25;1.13;;;18.30;52.70;;;;;;5012857;28;97474;-72
2021/09/14 04:15:50;;;;;;;1.13;0.55;;;18.40;53.10;;;;;;5028863;28;95483;-71
2021/09/14 04:18:22;;;;;;;3.28;0.88;;;18.50;55.00;;;;;;5022360;27;95741;-75
2021/09/14 04:20:54;;;;;;;3.72;0.88;;;18.60;56.10;;;;;;5004177;28;99333;-76
2021/09/14 04:23:26;;;;;;;2.80;0.70;;;18.70;57.60;;;;;;4998279;28;97894;-76
2021/09/14 04:25:56;;;;;;;1.20;0.57;;;18.80;56.60;;;;;;5029836;27;95839;-76
2021/09/14 04:28:27;;;;;;;1.38;0.63;;;18.90;54.90;;;;;;4992005;28;95502;-75
2021/09/14 04:30:57;;;;;;;1.80;0.47;;;18.90;54.20;;;;;;4995063;28;98089;-75
2021/09/14 04:33:27;;;;;;;1.10;0.43;;;18.90;53.70;;;;;;4974389;28;97315;-75
2021/09/14 04:35:59;;;;;;;0.60;0.40;;;19.00;55.10;;;;;;4983710;28;95674;-77
2021/09/14 04:38:34;;;;;;;0.82;0.63;;;19.10;56.10;;;;;;5005934;28;95794;-77
2021/09/14 04:41:08;;;;;;;0.82;0.82;;;19.20;56.10;;;;;;5002372;28;98015;-77
2021/09/14 04:43:38;;;;;;;;;;;19.30;55.80;;;;;;4966779;28;96172;-75
2021/09/14 04:46:12;;;;;;;1.58;0.50;;;19.30;56.40;;;;;;5002273;28;95683;-78
2021/09/14 04:48:42;;;;;;;1.90;0.60;;;19.30;54.90;;;;;;5002298;28;95707;-76
2021/09/14 04:51:12;;;;;;;1.20;0.90;;;19.30;54.00;;;;;;5004474;28;96026;-76
2021/09/14 04:53:44;;;;;;;;;;;19.30;54.50;;;;;;4989553;28;97649;-76
2021/09/14 04:56:16;;;;;;;1.52;0.52;;;19.30;53.50;;;;;;4980483;28;95364;-78
2021/09/14 04:58:50;;;;;;;0.85;0.40;;;19.20;53.10;;;;;;4991604;28;95830;-76
2021/09/14 05:01:21;;;;;;;1.00;0.80;;;19.20;53.60;;;;;;5005621;28;96187;-77
2021/09/14 05:03:54;;;;;;;2.55;0.95;;;19.20;53.60;;;;;;5002941;28;98272;-77
2021/09/14 05:06:30;;;;;;;1.88;0.60;;;19.20;53.80;;;;;;4998863;28;95687;-74
2021/09/14 05:09:03;;;;;;;1.13;0.70;;;19.10;53.70;;;;;;4993386;28;95958;-76
2021/09/14 05:11:44;;;;;;;1.40;0.70;;;19.00;53.50;;;;;;4991767;28;96194;-76
2021/09/14 05:14:16;;;;;;;3.03;0.77;;;19.00;52.90;;;;;;4993090;28;97384;-76
2021/09/14 05:17:06;;;;;;;3.22;0.70;;;19.00;53.80;;;;;;4957884;28;96121;-75
2021/09/14 05:19:56;;;;;;;2.60;0.90;;;19.00;53.80;;;;;;5000182;28;95680;-76
2021/09/14 05:22:33;;;;;;;3.15;1.20;;;19.10;54.60;;;;;;4982334;28;96186;-76
2021/09/14 05:25:04;;;;;;;1.25;0.70;;;19.10;53.30;;;;;;4981291;28;97831;-78
2021/09/14 05:27:34;;;;;;;1.63;0.90;;;19.20;55.40;;;;;;4998473;28;95799;-77
2021/09/14 05:30:06;;;;;;;0.70;0.70;;;19.40;55.20;;;;;;4992974;28;95867;-77
2021/09/14 05:32:36;;;;;;;0.68;0.60;;;19.50;54.90;;;;;;4998829;28;98245;-78
2021/09/14 05:35:08;;;;;;;0.75;0.60;;;19.60;44.70;;;;;;5005061;28;96000;-77
2021/09/14 05:37:41;;;;;;;0.85;0.70;;;19.80;54.40;;;;;;4997400;28;95227;-75
2021/09/14 05:40:13;;;;;;;1.05;0.95;;;19.80;54.10;;;;;;5002098;28;95913;-75
2021/09/14 05:42:45;;;;;;;1.70;0.85;;;19.90;54.30;;;;;;4988659;28;101275;-76
2021/09/14 05:45:15;;;;;;;2.90;0.88;;;19.90;53.70;;;;;;4991575;28;97658;-76
2021/09/14 05:47:45;;;;;;;1.05;0.50;;;19.90;54.10;;;;;;5007292;28;96534;-76
2021/09/14 05:50:15;;;;;;;1.88;0.90;;;19.90;54.50;;;;;;5009481;28;95219;-77
2021/09/14 05:52:47;;;;;;;1.33;0.70;;;20.00;53.60;;;;;;5017491;28;97521;-75
2021/09/14 05:55:18;;;;;;;2.28;0.90;;;20.10;53.70;;;;;;5017498;28;97944;-77
2021/09/14 05:57:49;;;;;;;1.38;1.17;;;20.10;53.30;;;;;;5030360;28;95685;-73
2021/09/14 06:00:23;;;;;;;2.13;0.87;;;20.00;51.80;;;;;;5010620;28;95985;-78
2021/09/14 06:02:54;;;;;;;1.63;0.90;;;20.10;53.70;;;;;;5029715;28;105407;-77
2021/09/14 06:05:27;;;;;;;2.55;1.10;;;20.10;52.20;;;;;;5017252;28;97757;-78
2021/09/14 06:08:00;;;;;;;0.60;0.60;;;20.10;51.10;;;;;;5012329;28;95807;-78
2021/09/14 06:10:33;;;;;;;1.35;0.90;;;20.00;53.70;;;;;;5013449;28;96324;-75
2021/09/14 06:13:15;;;;;;;2.00;1.13;;;20.00;52.30;;;;;;5019204;28;97424;-77
2021/09/14 06:15:47;;;;;;;2.38;0.90;;;19.90;52.00;;;;;;5006689;28;97157;-76
2021/09/14 06:18:24;;;;;;;2.63;1.20;;;19.90;52.50;;;;;;5001151;27;95514;-75
2021/09/14 06:20:56;;;;;;;2.42;1.20;;;19.90;52.00;;;;;;5005819;28;95323;-78
2021/09/14 06:23:27;;;;;;;2.20;1.10;;;19.90;51.90;;;;;;5009286;27;98020;-77
2021/09/14 06:26:01;;;;;;;1.58;1.10;;;19.80;52.20;;;;;;5005411;28;96631;-74
2021/09/14 06:28:31;;;;;;;2.37;1.20;;;19.90;53.30;;;;;;4990452;28;95917;-74
2021/09/14 06:31:01;;;;;;;2.67;1.30;;;19.90;52.70;;;;;;5000404;28;95823;-76
2021/09/14 06:33:34;;;;;;;2.08;1.27;;;19.80;52.50;;;;;;5005586;28;96069;-71
2021/09/14 06:36:06;;;;;;;3.05;1.90;;;19.70;52.10;;;;;;5006853;28;97701;-72
2021/09/14 06:38:38;;;;;;;3.50;1.75;;;19.60;50.70;;;;;;5019356;28;95503;-73
2021/09/14 06:41:08;;;;;;;2.95;1.40;;;19.50;51.40;;;;;;5011974;28;95803;-68
2021/09/14 06:43:42;;;;;;;3.03;2.10;;;19.50;52.20;;;;;;4996454;28;97026;-73
2021/09/14 06:46:15;;;;;;;2.05;1.20;;;19.30;51.90;;;;;;5006181;28;95849;-71
2021/09/14 06:49:03;;;;;;;1.33;1.00;;;19.30;53.60;;;;;;5012431;28;95354;-74
2021/09/14 06:51:36;;;;;;;1.95;1.20;;;19.20;52.40;;;;;;5011131;28;95950;-75
2021/09/14 06:54:07;;;;;;;1.83;1.10;;;19.30;53.40;;;;;;5032368;27;95961;-72
2021/09/14 06:56:38;;;;;;;2.63;0.98;;;19.30;52.70;;;;;;5033124;28;95553;-74
2021/09/14 06:59:09;;;;;;;3.00;1.20;;;19.20;52.20;;;;;;5032420;28;97132;-75
2021/09/14 07:01:40;;;;;;;2.20;1.10;;;19.10;52.20;;;;;;5033520;27;95406;-74
2021/09/14 07:04:12;;;;;;;1.52;1.13;;;19.00;51.10;;;;;;5029763;28;95880;-75
2021/09/14 07:06:42;;;;;;;4.85;1.63;;;18.90;52.60;;;;;;5029267;28;95818;-75
2021/09/14 07:09:14;;;;;;;1.92;1.38;;;18.80;52.70;;;;;;5029921;28;95754;-74
2021/09/14 07:11:44;;;;;;;;;;;18.70;53.60;;;;;;5012500;28;95777;-74
2021/09/14 07:14:15;;;;;;;8.80;2.15;;;18.70;53.60;;;;;;5032679;28;96111;-75
2021/09/14 07:16:45;;;;;;;6.68;1.70;;;18.70;54.40;;;;;;5022727;28;95695;-74
2021/09/14 07:19:18;;;;;;;5.60;1.70;;;18.50;54.20;;;;;;5016522;27;95956;-74
2021/09/14 07:21:49;;;;;;;3.55;1.10;;;18.40;54.90;;;;;;5024543;28;95507;-75
2021/09/14 07:24:21;;;;;;;8.10;1.73;;;18.30;54.70;;;;;;5029181;28;95828;-75
2021/09/14 07:26:52;;;;;;;6.10;1.60;;;18.20;55.30;;;;;;5022482;27;96126;-73
2021/09/14 07:29:23;;;;;;;5.82;2.25;;;18.20;55.80;;;;;;5029767;28;95843;-74
2021/09/14 07:31:53;;;;;;;6.10;1.70;;;18.20;55.90;;;;;;4998591;28;95734;-75
2021/09/14 07:34:24;;;;;;;2.33;1.23;;;18.10;56.20;;;;;;5027457;28;96487;-75
2021/09/14 07:36:56;;;;;;;7.25;1.60;;;18.00;57.10;;;;;;5030780;27;95689;-74
2021/09/14 07:39:26;;;;;;;9.25;2.85;;;17.90;57.20;;;;;;5025674;28;95655;-74
2021/09/14 07:41:56;;;;;;;2.55;1.80;;;17.90;57.50;;;;;;5034402;27;95515;-75
2021/09/14 07:44:26;;;;;;;3.58;1.63;;;17.90;57.30;;;;;;5012961;28;95911;-74
2021/09/14 07:46:57;;;;;;;3.88;1.45;;;17.80;57.70;;;;;;5028506;28;95925;-75
2021/09/14 07:49:28;;;;;;;4.63;1.52;;;17.70;58.10;;;;;;5034805;28;95527;-74
2021/09/14 07:51:58;;;;;;;;;;;17.70;58.20;;;;;;5036024;28;95634;-72
2021/09/14 07:54:30;;;;;;;6.68;1.75;;;17.60;58.40;;;;;;5017236;28;95804;-74
2021/09/14 07:57:01;;;;;;;3.67;1.50;;;17.50;58.70;;;;;;5031593;28;96306;-77
2021/09/14 07:59:34;;;;;;;5.72;1.70;;;17.40;59.20;;;;;;5031113;28;95873;-75
2021/09/14 08:02:05;;;;;;;7.03;1.75;;;17.50;59.50;;;;;;5026400;27;95927;-73
2021/09/14 08:04:37;;;;;;;3.15;1.40;;;17.50;59.20;;;;;;5004657;28;97770;-75
2021/09/14 08:07:07;;;;;;;5.20;1.40;;;17.50;59.60;;;;;;5004580;28;96169;-73
2021/09/14 08:09:38;;;;;;;8.70;1.85;;;17.50;59.60;;;;;;5030950;28;95584;-72
2021/09/14 08:12:09;;;;;;;3.80;1.35;;;17.50;59.20;;;;;;5031171;28;96296;-75
2021/09/14 08:14:39;;;;;;;10.23;4.70;;;17.30;59.60;;;;;;5029033;27;95859;-74
2021/09/14 08:17:12;;;;;;;5.68;1.63;;;17.20;59.80;;;;;;5021321;27;95921;-74
2021/09/14 08:19:44;;;;;;;6.60;1.75;;;17.00;60.20;;;;;;5017755;27;95960;-78
2021/09/14 08:22:15;;;;;;;4.30;1.13;;;17.00;60.60;;;;;;5027436;27;95960;-74
2021/09/14 08:24:49;;;;;;;6.57;1.58;;;16.90;60.90;;;;;;5008463;28;96507;-74
2021/09/14 08:27:20;;;;;;;3.58;1.50;;;17.00;61.70;;;;;;5021424;27;95363;-76
2021/09/14 08:29:51;;;;;;;3.15;1.25;;;17.30;61.50;;;;;;5031331;28;95516;-78
2021/09/14 08:32:20;;;;;;;4.47;1.50;;;17.50;61.10;;;;;;5027340;28;95909;-76
2021/09/14 08:34:50;;;;;;;4.72;1.80;;;17.80;61.20;;;;;;5027941;27;95871;-75
2021/09/14 08:37:21;;;;;;;4.82;1.98;;;18.00;61.40;;;;;;5033534;28;98545;-76
2021/09/14 08:39:52;;;;;;;3.50;1.15;;;18.10;61.30;;;;;;5032507;28;95557;-76
2021/09/14 08:42:22;;;;;;;3.10;1.57;;;18.20;61.10;;;;;;5011951;28;95350;-75
2021/09/14 08:44:52;;;;;;;2.75;1.23;;;18.20;61.30;;;;;;5010328;28;96280;-78
2021/09/14 08:47:24;;;;;;;3.67;1.35;;;18.30;61.40;;;;;;5028428;27;95367;-75
2021/09/14 08:49:55;;;;;;;3.58;1.23;;;18.30;61.40;;;;;;4993385;27;96127;-77
2021/09/14 08:52:26;;;;;;;2.28;1.08;;;18.30;61.50;;;;;;5013642;28;95410;-76
2021/09/14 08:54:57;;;;;;;2.85;1.10;;;18.30;61.60;;;;;;5032467;28;95815;-75
2021/09/14 08:57:28;;;;;;;1.73;1.20;;;18.30;61.80;;;;;;5033636;28;95834;-71
2021/09/14 09:00:00;;;;;;;2.00;1.13;;;18.30;62.00;;;;;;5035401;27;95343;-78
2021/09/14 09:02:31;;;;;;;1.63;0.88;;;18.30;61.80;;;;;;5001113;28;96108;-75
2021/09/14 09:05:07;;;;;;;2.65;1.17;;;18.30;61.80;;;;;;5035749;28;96032;-76
2021/09/14 09:07:40;;;;;;;2.95;1.45;;;18.40;61.70;;;;;;5014984;28;95380;-76
2021/09/14 09:10:17;;;;;;;1.73;1.10;;;18.40;61.50;;;;;;5038045;28;96129;-78
2021/09/14 09:12:50;;;;;;;3.40;1.20;;;18.50;61.40;;;;;;5037270;28;95264;-77
2021/09/14 09:15:35;;;;;;;1.58;0.85;;;18.50;61.40;;;;;;5011334;28;98695;-76
2021/09/14 09:18:12;;;;;;;2.40;1.08;;;18.60;61.50;;;;;;5028076;27;95924;-75
2021/09/14 09:20:46;;;;;;;2.65;1.10;;;18.60;61.70;;;;;;5005575;27;95445;-76
2021/09/14 09:23:24;;;;;;;2.58;1.30;;;18.70;61.60;;;;;;5031389;28;95216;-75
2021/09/14 09:26:07;;;;;;;1.27;0.90;;;18.70;61.60;;;;;;5032260;28;95545;-76
2021/09/14 09:28:38;;;;;;;3.95;1.02;;;18.80;61.70;;;;;;5032011;28;95696;-77
2021/09/14 09:31:13;;;;;;;1.48;1.13;;;18.80;61.60;;;;;;5024386;28;95486;-76
2021/09/14 09:33:44;;;;;;;1.25;0.85;;;18.80;61.60;;;;;;5035194;28;96289;-76
2021/09/14 09:36:15;;;;;;;1.70;0.70;;;18.80;61.50;;;;;;5015486;28;96835;-76
2021/09/14 09:38:47;;;;;;;1.48;0.93;;;18.80;62.20;;;;;;5034579;28;95792;-75
2021/09/14 09:41:20;;;;;;;1.40;1.08;;;18.90;61.70;;;;;;5034151;28;95564;-75
2021/09/14 09:43:50;;;;;;;2.58;1.17;;;18.90;61.80;;;;;;5031463;27;95844;-76
2021/09/14 09:46:21;;;;;;;1.50;0.80;;;18.90;61.70;;;;;;5008275;28;98174;-75
2021/09/14 09:48:51;;;;;;;2.25;1.17;;;18.80;61.60;;;;;;5035773;28;95748;-76
2021/09/14 09:51:25;;;;;;;1.45;1.00;;;18.90;61.60;;;;;;5036333;28;95595;-75
2021/09/14 09:53:56;;;;;;;1.40;0.80;;;18.90;61.70;;;;;;5035335;28;95760;-76
2021/09/14 09:56:28;;;;;;;1.80;0.90;;;18.90;61.70;;;;;;5033087;27;95884;-75
2021/09/14 09:59:02;;;;;;;1.25;0.82;;;18.90;61.60;;;;;;5029964;28;95761;-73
2021/09/14 10:01:35;;;;;;;3.20;1.10;;;18.90;61.50;;;;;;5003645;28;95912;-74
2021/09/14 10:04:16;;;;;;;2.00;1.02;;;18.80;62.20;;;;;;5029443;27;95821;-75
2021/09/14 10:06:53;;;;;;;2.17;1.13;;;18.80;62.30;;;;;;5029534;28;96417;-76
2021/09/14 10:09:34;;;;;;;3.28;1.30;;;18.80;62.40;;;;;;5029787;28;95854;-75
2021/09/14 10:12:06;;;;;;;1.17;0.90;;;18.80;62.50;;;;;;5029610;28;95322;-75
2021/09/14 10:14:36;;;;;;;;;;;18.80;62.50;;;;;;5035183;28;95910;-76
2021/09/14 10:17:09;;;;;;;2.58;0.70;;;18.70;62.60;;;;;;5010059;27;96035;-77
2021/09/14 10:19:43;;;;;;;1.70;0.82;;;18.70;62.60;;;;;;5020188;27;96113;-76
2021/09/14 10:22:23;;;;;;;1.45;0.80;;;18.70;62.50;;;;;;5015625;28;95927;-75
2021/09/14 10:24:59;;;;;;;1.20;0.90;;;18.70;62.50;;;;;;5030041;28;95850;-75
2021/09/14 10:27:41;;;;;;;1.10;1.00;;;18.70;62.50;;;;;;5010448;28;96156;-75
2021/09/14 10:30:16;;;;;;;0.70;0.60;;;18.70;62.50;;;;;;5010440;28;97489;-76
2021/09/14 10:32:47;;;;;;;1.55;1.20;;;18.70;62.50;;;;;;5017145;28;96098;-76
2021/09/14 10:35:42;;;;;;;1.85;0.70;;;18.70;62.40;;;;;;5034796;28;96111;-78
2021/09/14 10:38:14;;;;;;;1.95;0.82;;;18.70;62.50;;;;;;5031303;28;95797;-78
2021/09/14 10:40:47;;;;;;;1.10;0.80;;;18.70;62.40;;;;;;5036132;28;95459;-78
2021/09/14 10:43:35;;;;;;;1.58;1.10;;;18.60;62.50;;;;;;5015671;28;95335;-79
2021/09/14 10:46:05;;;;;;;1.05;0.90;;;18.60;62.50;;;;;;5000071;28;96316;-77
2021/09/14 10:48:47;;;;;;;2.17;0.98;;;18.60;62.50;;;;;;5014465;28;98740;-73
2021/09/14 10:51:19;;;;;;;1.67;0.85;;;18.60;62.30;;;;;;5032426;28;95519;-75
2021/09/14 10:53:58;;;;;;;1.17;0.88;;;18.60;62.60;;;;;;5032496;27;95986;-79
2021/09/14 10:56:30;;;;;;;2.05;0.80;;;18.50;62.50;;;;;;5029907;28;95530;-79
2021/09/14 10:59:02;;;;;;;0.70;0.70;;;18.50;62.50;;;;;;5017479;28;95824;-78
2021/09/14 11:01:36;;;;;;;0.75;0.75;;;18.50;62.60;;;;;;5006092;28;95971;-79
2021/09/14 11:04:07;;;;;;;1.88;0.80;;;18.50;62.60;;;;;;5033074;28;98140;-77
2021/09/14 11:06:39;;;;;;;1.38;0.70;;;18.50;62.60;;;;;;5010968;28;95707;-76
2021/09/14 11:09:10;;;;;;;1.13;0.60;;;18.40;62.60;;;;;;5032673;28;95762;-77
2021/09/14 11:11:48;;;;;;;1.52;0.57;;;18.40;62.60;;;;;;5029713;28;95510;-77
2021/09/14 11:14:18;;;;;;;0.85;0.60;;;18.40;62.60;;;;;;5033970;27;95414;-77
2021/09/14 11:16:49;;;;;;;1.73;0.70;;;18.40;62.70;;;;;;5026710;28;100181;-77
2021/09/14 11:19:25;;;;;;;1.23;0.80;;;18.40;62.70;;;;;;5001671;27;96414;-72
2021/09/14 11:21:57;;;;;;;1.13;0.75;;;18.30;62.70;;;;;;5030015;27;95656;-76
2021/09/14 11:24:28;;;;;;;0.50;0.50;;;18.30;62.70;;;;;;5012357;28;96094;-77
2021/09/14 11:26:59;;;;;;;1.23;0.63;;;18.30;62.70;;;;;;5012082;28;95498;-75
2021/09/14 11:29:31;;;;;;;1.08;0.98;;;18.30;62.70;;;;;;5031655;28;96087;-74
2021/09/14 11:32:14;;;;;;;0.95;0.73;;;18.20;62.90;;;;;;5026700;28;96308;-77
2021/09/14 11:34:46;;;;;;;0.75;0.65;;;18.10;63.10;;;;;;5035522;28;95705;-77
2021/09/14 11:37:31;;;;;;;1.05;0.60;;;18.00;63.20;;;;;;5034780;27;95880;-77
2021/09/14 11:40:03;;;;;;;0.50;0.50;;;18.00;63.30;;;;;;5010532;28;95604;-72
2021/09/14 11:42:33;;;;;;;1.30;0.73;;;18.00;63.50;;;;;;5032619;28;95924;-76
2021/09/14 11:45:07;;;;;;;1.02;0.90;;;17.90;63.60;;;;;;5030944;28;95319;-75
2021/09/14 11:47:43;;;;;;;0.55;0.50;;;17.90;63.70;;;;;;5014630;28;95745;-77
2021/09/14 11:50:30;;;;;;;1.08;0.70;;;17.80;63.70;;;;;;5037209;28;96569;-76
2021/09/14 11:53:13;;;;;;;1.00;0.80;;;17.80;63.80;;;;;;5015425;28;96159;-75
2021/09/14 11:55:49;;;;;;;1.35;0.68;;;17.70;63.80;;;;;;5035256;28;95487;-76
2021/09/14 11:58:35;;;;;;;2.58;0.98;;;17.70;64.00;;;;;;5033008;28;96098;-76
2021/09/14 12:01:08;;;;;;;3.10;0.98;;;17.70;64.00;;;;;;5029693;27;95972;-77
2021/09/14 12:03:43;;;;;;;2.08;1.00;;;17.60;64.00;;;;;;5011169;28;97494;-75
2021/09/14 12:06:21;;;;;;;1.55;0.80;;;17.60;64.10;;;;;;5012097;28;95465;-76
2021/09/14 12:08:57;;;;;;;0.75;0.75;;;17.50;64.10;;;;;;5029089;28;95414;-76
2021/09/14 12:11:32;;;;;;;2.10;1.02;;;17.50;64.20;;;;;;5017830;28;95340;-77
2021/09/14 12:14:08;;;;;;;1.08;0.85;;;17.50;64.20;;;;;;5032569;27;95387;-76
2021/09/14 12:16:40;;;;;;;0.82;0.82;;;17.40;64.30;;;;;;5030102;28;95844;-74
2021/09/14 12:19:14;;;;;;;2.47;1.45;;;17.40;64.30;;;;;;5020599;27;97333;-76
2021/09/14 12:21:47;;;;;;;2.13;1.10;;;17.30;64.40;;;;;;5032828;27;95885;-77
2021/09/14 12:24:21;;;;;;;1.13;0.93;;;17.30;64.40;;;;;;5015796;28;98020;-76
2021/09/14 12:26:51;;;;;;;1.00;0.80;;;17.30;64.40;;;;;;5019471;28;95649;-76
2021/09/14 12:29:23;;;;;;;0.80;0.80;;;17.20;64.50;;;;;;5036121;28;95656;-76
2021/09/14 12:31:55;;;;;;;1.83;1.05;;;17.20;64.60;;;;;;5029074;28;95602;-76
2021/09/14 12:34:25;;;;;;;1.38;1.27;;;17.20;64.60;;;;;;5034340;28;95510;-76
2021/09/14 12:36:55;;;;;;;1.60;1.30;;;17.20;64.70;;;;;;5012293;28;96070;-76
2021/09/14 12:39:25;;;;;;;1.25;1.00;;;17.10;64.60;;;;;;5009514;27;95381;-77
2021/09/14 12:41:56;;;;;;;1.05;1.02;;;17.00;64.70;;;;;;5035100;28;95201;-76
2021/09/14 12:44:27;;;;;;;1.65;1.10;;;17.00;64.70;;;;;;5030544;27;95332;-76
2021/09/14 12:46:58;;;;;;;1.40;1.30;;;17.00;64.80;;;;;;5012764;28;95468;-77
2021/09/14 12:49:32;;;;;;;1.85;1.40;;;16.90;64.80;;;;;;5016390;28;95367;-77
2021/09/14 12:52:03;;;;;;;2.42;1.30;;;16.90;64.80;;;;;;5034598;28;95981;-78
2021/09/14 12:54:33;;;;;;;1.67;1.13;;;16.90;64.80;;;;;;5018231;28;95423;-76
2021/09/14 12:57:21;;;;;;;1.42;1.27;;;16.90;65.50;;;;;;5011405;28;95757;-75
2021/09/14 12:59:53;;;;;;;1.50;1.40;;;16.80;64.80;;;;;;5030815;28;95398;-74
2021/09/14 13:02:24;;;;;;;1.38;1.27;;;16.80;64.90;;;;;;5026121;28;95926;-76
2021/09/14 13:04:55;;;;;;;1.63;1.50;;;16.80;65.10;;;;;;5030938;28;95400;-78
2021/09/14 13:07:26;;;;;;;1.60;1.50;;;16.80;65.10;;;;;;5019784;27;97617;-78
2021/09/14 13:09:57;;;;;;;4.00;1.60;;;16.70;65.40;;;;;;5030500;27;95536;-80
2021/09/14 13:12:32;;;;;;;;;;;16.70;65.90;;;;;;5010350;28;95861;-78
2021/09/14 13:17:53;;;;;;;2.85;1.85;;;16.60;66.00;;;;;;5022880;27;96418;-76
2021/09/14 13:20:24;;;;;;;2.67;1.75;;;16.60;65.90;;;;;;5017711;27;95530;-76
2021/09/14 13:22:55;;;;;;;2.47;1.73;;;16.50;66.00;;;;;;5029187;28;95877;-77
2021/09/14 13:25:26;;;;;;;2.33;1.92;;;16.50;66.10;;;;;;5002672;28;97267;-78
2021/09/14 13:27:57;;;;;;;1.90;1.70;;;16.40;66.10;;;;;;5010112;28;97104;-77
2021/09/14 13:30:28;;;;;;;2.67;2.47;;;16.40;66.30;;;;;;5028386;27;95312;-76
2021/09/14 13:32:59;;;;;;;2.90;1.80;;;16.40;66.40;;;;;;5025860;27;95891;-77
2021/09/14 13:35:30;;;;;;;;;;;16.30;66.30;;;;;;5033529;28;95508;-79
2021/09/14 13:38:01;;;;;;;1.90;1.77;;;16.30;66.50;;;;;;5016007;28;95906;-76
2021/09/14 13:40:33;;;;;;;4.22;2.17;;;16.20;66.60;;;;;;5016584;28;95481;-77
2021/09/14 13:43:03;;;;;;;2.97;2.03;;;16.20;66.70;;;;;;5035075;28;95921;-77
2021/09/14 13:48:25;;;;;;;2.65;1.80;;;16.20;66.70;;;;;;5019533;28;95667;-78
2021/09/14 13:50:56;;;;;;;4.03;2.30;;;16.20;56.50;;;;;;5037616;28;95367;-79
2021/09/14 13:53:27;;;;;;;2.40;2.08;;;16.10;66.70;;;;;;5033644;28;96276;-79
2021/09/14 13:55:58;;;;;;;1.93;1.83;;;16.10;66.80;;;;;;5036295;28;95947;-77
2021/09/14 13:58:29;;;;;;;2.72;2.10;;;16.00;66.80;;;;;;5035386;28;95224;-77
2021/09/14 14:01:00;;;;;;;4.30;2.63;;;16.00;66.90;;;;;;5030221;27;95734;-78
2021/09/14 14:03:31;;;;;;;2.33;2.10;;;16.00;67.10;;;;;;5019655;28;96029;-78
2021/09/14 14:06:03;;;;;;;3.90;2.30;;;15.90;67.00;;;;;;5037687;27;95698;-77
2021/09/14 14:08:34;;;;;;;3.30;2.47;;;15.90;67.00;;;;;;5011241;28;96004;-78
2021/09/14 14:11:05;;;;;;;;;;;15.90;67.00;;;;;;5006866;28;95795;-77
2021/09/14 14:13:37;;;;;;;4.68;3.35;;;15.90;67.00;;;;;;5012561;28;95755;-77
2021/09/14 14:16:09;;;;;;;3.88;2.78;;;15.80;67.10;;;;;;5029627;27;96086;-78
2021/09/14 14:18:42;;;;;;;4.47;2.90;;;15.80;67.10;;;;;;5029324;27;95372;-77
2021/09/14 14:21:12;;;;;;;4.22;2.70;;;15.80;67.10;;;;;;5020184;27;96141;-78